• Join FlightAware (Why Join?)
  • Login
  • US Flag 
05:42AM EDT


 

Airport Tracker/Info


-or-


 

Live Flight TrackerFlight Track Log ✈ N866TC ✈ 06-Jun-2013 ✈ KOJC - KSGF

Flight Track Log - Related Links

Times and Time Zones

All times are in EDT time to prevent confusion due to time zone crossing. See the N866TC flight status page for this flight to view local times or setup timezone preferences in your user account.

Time Position Orientation Groundspeed Altitude Reporting Facility
EDT Latitude Longitude Course Direction KTS MPH feet Rate Location/Type
06:47PM 38.8667 -94.6833 66° East 202 232 3,700  Level Kansas City TRACON
06:48PM 38.8064 -94.6414 152° Southeast 228 262 6,100 3,660 Climbing Kansas City Center
06:49PM 38.7372 -94.6211 167° South 234 269 11,700 4,380 Climbing Kansas City Center
06:50PM 38.6692 -94.5678 149° Southeast 294 338 15,200 3,480 Climbing Kansas City Center
06:51PM 38.5844 -94.4994 148° Southeast 323 372 18,900 2,640 Climbing Kansas City Center
06:52PM 38.5011 -94.4344 149° Southeast 365 420 20,700 1,500 Climbing Kansas City Center
06:53PM 38.3961 -94.3492 148° Southeast 403 464 22,100 1,080 Climbing Kansas City Center
06:54PM 38.3025 -94.2761 149° Southeast 411 473 23,000 420 Climbing Kansas City Center
06:55PM 38.1961 -94.1928 148° Southeast 404 465 23,000  Level Kansas City Center
06:56PM 38.1033 -94.1208 149° Southeast 406 467 23,000  Level Kansas City Center
06:57PM 38.0103 -94.0467 148° Southeast 411 473 23,000 -60 Level Kansas City Center
06:58PM 37.8950 -93.9592 149° Southeast 405 466 22,900 -1,080 Descending Kansas City Center
07:00PM 37.7986 -93.8833 148° Southeast 406 467 20,800 -2,280 Descending Kansas City Center
07:01PM 37.7042 -93.8103 149° Southeast 401 461 18,300 -2,520 Descending Kansas City Center
07:02PM 37.6142 -93.7383 148° Southeast 387 445 15,600 -2,640 Descending Kansas City Center
07:03PM 37.5256 -93.6703 149° Southeast 380 437 12,800 -2,640 Descending Kansas City Center
07:04PM 37.4447 -93.6086 149° Southeast 358 412 10,100 -2,880 Descending Kansas City Center
07:05PM 37.3594 -93.5422 148° Southeast 322 371 6,900 -2,820 Descending Kansas City Center
07:06PM 37.2922 -93.4925 150° Southeast 300 345 4,300 -2,160 Descending Kansas City Center
07:07PM 37.2317 -93.4433 147° Southeast 285 328 2,500 -960 Descending Kansas City Center
07:08PM 37.1828 -93.3969 143° Southeast 276 318 2,400 -120 Descending Kansas City Center
07:10PM 37.2333 -93.3833 158° South  Level FlightAware Approximate
07:17PM 37.2457 -93.3886 158° South  Level Estimated
07:18PM 37.2457 -93.3886 158° South  Level Estimated
07:19PM 37.2457 -93.3886 158° South  Level Estimated